sensor_id;sensor_type;location;lat;lon;timestamp;P1;durP1;ratioP1;P2;durP2;ratioP2
77888;SDS011;67082;41.704;44.768;2024-01-11T00:00:40;1.80;;;1.00;;
77888;SDS011;67082;41.704;44.768;2024-01-11T00:03:28;1.23;;;0.50;;
77888;SDS011;67082;41.704;44.768;2024-01-11T00:05:56;1.55;;;0.60;;
77888;SDS011;67082;41.704;44.768;2024-01-11T00:08:24;0.85;;;0.50;;
77888;SDS011;67082;41.704;44.768;2024-01-11T00:10:53;0.80;;;0.50;;
77888;SDS011;67082;41.704;44.768;2024-01-11T00:13:23;1.60;;;0.50;;
77888;SDS011;67082;41.704;44.768;2024-01-11T00:15:51;1.20;;;0.50;;
77888;SDS011;67082;41.704;44.768;2024-01-11T00:18:20;1.48;;;0.55;;
77888;SDS011;67082;41.704;44.768;2024-01-11T00:20:48;1.75;;;0.60;;
77888;SDS011;67082;41.704;44.768;2024-01-11T00:23:16;1.80;;;0.70;;
77888;SDS011;67082;41.704;44.768;2024-01-11T00:25:44;2.17;;;1.23;;
77888;SDS011;67082;41.704;44.768;2024-01-11T00:28:12;0.90;;;0.52;;
77888;SDS011;67082;41.704;44.768;2024-01-11T00:30:40;1.75;;;0.93;;
77888;SDS011;67082;41.704;44.768;2024-01-11T00:33:08;1.20;;;0.70;;
77888;SDS011;67082;41.704;44.768;2024-01-11T00:35:37;1.20;;;0.60;;
77888;SDS011;67082;41.704;44.768;2024-01-11T00:38:06;1.30;;;0.60;;
77888;SDS011;67082;41.704;44.768;2024-01-11T00:40:34;1.10;;;0.50;;
77888;SDS011;67082;41.704;44.768;2024-01-11T00:43:02;1.38;;;0.70;;
77888;SDS011;67082;41.704;44.768;2024-01-11T00:45:30;2.42;;;0.82;;
77888;SDS011;67082;41.704;44.768;2024-01-11T00:47:58;0.80;;;0.60;;
77888;SDS011;67082;41.704;44.768;2024-01-11T00:50:26;2.85;;;1.25;;
77888;SDS011;67082;41.704;44.768;2024-01-11T00:52:54;1.40;;;0.70;;
77888;SDS011;67082;41.704;44.768;2024-01-11T00:55:22;0.60;;;0.50;;
77888;SDS011;67082;41.704;44.768;2024-01-11T00:57:52;1.42;;;0.60;;
77888;SDS011;67082;41.704;44.768;2024-01-11T01:00:20;0.40;;;0.40;;
77888;SDS011;67082;41.704;44.768;2024-01-11T01:02:48;0.95;;;0.43;;
77888;SDS011;67082;41.704;44.768;2024-01-11T01:05:16;0.88;;;0.50;;
77888;SDS011;67082;41.704;44.768;2024-01-11T01:07:44;0.77;;;0.52;;
77888;SDS011;67082;41.704;44.768;2024-01-11T01:10:13;1.95;;;0.70;;
77888;SDS011;67082;41.704;44.768;2024-01-11T01:12:41;1.45;;;0.52;;
77888;SDS011;67082;41.704;44.768;2024-01-11T01:15:09;0.90;;;0.50;;
77888;SDS011;67082;41.704;44.768;2024-01-11T01:17:37;0.82;;;0.50;;
77888;SDS011;67082;41.704;44.768;2024-01-11T01:20:05;1.05;;;0.57;;
77888;SDS011;67082;41.704;44.768;2024-01-11T01:22:34;2.03;;;0.82;;
77888;SDS011;67082;41.704;44.768;2024-01-11T01:25:02;1.52;;;0.75;;
77888;SDS011;67082;41.704;44.768;2024-01-11T01:27:31;1.08;;;0.52;;
77888;SDS011;67082;41.704;44.768;2024-01-11T01:29:58;1.27;;;0.52;;
77888;SDS011;67082;41.704;44.768;2024-01-11T01:32:26;1.38;;;0.50;;
77888;SDS011;67082;41.704;44.768;2024-01-11T01:34:54;0.98;;;0.60;;
77888;SDS011;67082;41.704;44.768;2024-01-11T01:37:22;0.77;;;0.50;;
77888;SDS011;67082;41.704;44.768;2024-01-11T01:39:51;1.80;;;0.60;;
77888;SDS011;67082;41.704;44.768;2024-01-11T01:42:19;0.88;;;0.63;;
77888;SDS011;67082;41.704;44.768;2024-01-11T01:44:48;1.25;;;0.60;;
77888;SDS011;67082;41.704;44.768;2024-01-11T01:47:15;1.70;;;0.60;;
77888;SDS011;67082;41.704;44.768;2024-01-11T01:49:45;1.20;;;0.47;;
77888;SDS011;67082;41.704;44.768;2024-01-11T01:52:13;0.60;;;0.43;;
77888;SDS011;67082;41.704;44.768;2024-01-11T01:54:45;0.52;;;0.40;;
77888;SDS011;67082;41.704;44.768;2024-01-11T01:57:13;1.00;;;0.50;;
77888;SDS011;67082;41.704;44.768;2024-01-11T01:59:42;1.80;;;0.57;;
77888;SDS011;67082;41.704;44.768;2024-01-11T02:02:10;0.63;;;0.43;;
77888;SDS011;67082;41.704;44.768;2024-01-11T02:04:38;2.05;;;0.60;;
77888;SDS011;67082;41.704;44.768;2024-01-11T02:07:06;1.92;;;0.80;;
77888;SDS011;67082;41.704;44.768;2024-01-11T02:09:35;1.50;;;0.60;;
77888;SDS011;67082;41.704;44.768;2024-01-11T02:12:04;1.08;;;0.40;;
77888;SDS011;67082;41.704;44.768;2024-01-11T02:14:33;0.93;;;0.50;;
77888;SDS011;67082;41.704;44.768;2024-01-11T02:17:01;0.73;;;0.40;;
77888;SDS011;67082;41.704;44.768;2024-01-11T02:19:50;0.65;;;0.40;;
77888;SDS011;67082;41.704;44.768;2024-01-11T02:22:28;0.65;;;0.50;;
77888;SDS011;67082;41.704;44.768;2024-01-11T02:24:57;0.47;;;0.40;;
77888;SDS011;67082;41.704;44.768;2024-01-11T02:27:26;1.55;;;0.43;;
77888;SDS011;67082;41.704;44.768;2024-01-11T02:29:54;0.68;;;0.47;;
77888;SDS011;67082;41.704;44.768;2024-01-11T02:32:22;1.00;;;0.50;;
77888;SDS011;67082;41.704;44.768;2024-01-11T02:34:50;1.13;;;0.60;;
77888;SDS011;67082;41.704;44.768;2024-01-11T02:37:18;1.23;;;0.43;;
77888;SDS011;67082;41.704;44.768;2024-01-11T02:39:46;0.52;;;0.30;;
77888;SDS011;67082;41.704;44.768;2024-01-11T02:42:14;0.60;;;0.40;;
77888;SDS011;67082;41.704;44.768;2024-01-11T02:44:43;0.60;;;0.40;;
77888;SDS011;67082;41.704;44.768;2024-01-11T02:47:11;0.75;;;0.50;;
77888;SDS011;67082;41.704;44.768;2024-01-11T02:49:40;1.20;;;0.43;;
77888;SDS011;67082;41.704;44.768;2024-01-11T02:52:07;1.17;;;0.60;;
77888;SDS011;67082;41.704;44.768;2024-01-11T02:54:35;1.92;;;0.68;;
77888;SDS011;67082;41.704;44.768;2024-01-11T02:57:04;2.08;;;0.63;;
77888;SDS011;67082;41.704;44.768;2024-01-11T02:59:32;1.13;;;0.57;;
77888;SDS011;67082;41.704;44.768;2024-01-11T03:02:00;1.67;;;0.70;;
77888;SDS011;67082;41.704;44.768;2024-01-11T03:04:28;1.20;;;0.70;;
77888;SDS011;67082;41.704;44.768;2024-01-11T03:06:56;1.40;;;0.70;;
77888;SDS011;67082;41.704;44.768;2024-01-11T03:09:24;1.35;;;0.70;;
77888;SDS011;67082;41.704;44.768;2024-01-11T03:11:52;0.90;;;0.60;;
77888;SDS011;67082;41.704;44.768;2024-01-11T03:14:21;1.08;;;0.60;;
77888;SDS011;67082;41.704;44.768;2024-01-11T03:16:49;1.67;;;0.70;;
77888;SDS011;67082;41.704;44.768;2024-01-11T03:19:17;2.15;;;0.70;;
77888;SDS011;67082;41.704;44.768;2024-01-11T03:21:45;2.38;;;0.80;;
77888;SDS011;67082;41.704;44.768;2024-01-11T03:24:14;1.23;;;0.70;;
77888;SDS011;67082;41.704;44.768;2024-01-11T03:26:42;1.30;;;0.70;;
77888;SDS011;67082;41.704;44.768;2024-01-11T03:29:10;1.00;;;0.60;;
77888;SDS011;67082;41.704;44.768;2024-01-11T03:31:40;0.98;;;0.60;;
77888;SDS011;67082;41.704;44.768;2024-01-11T03:34:09;1.40;;;0.60;;
77888;SDS011;67082;41.704;44.768;2024-01-11T03:36:37;1.33;;;0.50;;
77888;SDS011;67082;41.704;44.768;2024-01-11T03:39:05;1.65;;;0.68;;
77888;SDS011;67082;41.704;44.768;2024-01-11T03:41:33;1.27;;;0.60;;
77888;SDS011;67082;41.704;44.768;2024-01-11T03:44:02;0.68;;;0.50;;
77888;SDS011;67082;41.704;44.768;2024-01-11T03:46:29;3.55;;;1.10;;
77888;SDS011;67082;41.704;44.768;2024-01-11T03:48:57;2.53;;;0.80;;
77888;SDS011;67082;41.704;44.768;2024-01-11T03:51:27;3.17;;;1.20;;
77888;SDS011;67082;41.704;44.768;2024-01-11T03:53:55;4.22;;;1.30;;
77888;SDS011;67082;41.704;44.768;2024-01-11T03:56:23;2.63;;;0.93;;
77888;SDS011;67082;41.704;44.768;2024-01-11T03:58:51;2.83;;;1.00;;
77888;SDS011;67082;41.704;44.768;2024-01-11T04:01:19;1.52;;;0.80;;
77888;SDS011;67082;41.704;44.768;2024-01-11T04:03:50;1.27;;;0.68;;
77888;SDS011;67082;41.704;44.768;2024-01-11T04:06:19;4.00;;;0.90;;
77888;SDS011;67082;41.704;44.768;2024-01-11T04:08:49;1.40;;;0.90;;
77888;SDS011;67082;41.704;44.768;2024-01-11T04:11:18;1.58;;;0.80;;
77888;SDS011;67082;41.704;44.768;2024-01-11T04:13:47;5.03;;;1.08;;
77888;SDS011;67082;41.704;44.768;2024-01-11T04:16:14;1.10;;;0.70;;
77888;SDS011;67082;41.704;44.768;2024-01-11T04:18:42;2.55;;;1.00;;
77888;SDS011;67082;41.704;44.768;2024-01-11T04:21:26;3.58;;;0.90;;
77888;SDS011;67082;41.704;44.768;2024-01-11T04:23:58;1.92;;;0.80;;
77888;SDS011;67082;41.704;44.768;2024-01-11T04:26:26;2.00;;;1.00;;
77888;SDS011;67082;41.704;44.768;2024-01-11T04:28:54;2.58;;;0.80;;
77888;SDS011;67082;41.704;44.768;2024-01-11T04:31:26;1.70;;;0.80;;
77888;SDS011;67082;41.704;44.768;2024-01-11T04:33:55;4.93;;;1.08;;
77888;SDS011;67082;41.704;44.768;2024-01-11T04:36:24;2.45;;;1.20;;
77888;SDS011;67082;41.704;44.768;2024-01-11T04:38:52;8.65;;;1.20;;
77888;SDS011;67082;41.704;44.768;2024-01-11T04:41:20;1.65;;;0.90;;
77888;SDS011;67082;41.704;44.768;2024-01-11T04:43:49;2.13;;;0.73;;
77888;SDS011;67082;41.704;44.768;2024-01-11T04:46:17;2.58;;;0.80;;
77888;SDS011;67082;41.704;44.768;2024-01-11T04:48:46;1.92;;;0.60;;
77888;SDS011;67082;41.704;44.768;2024-01-11T04:51:15;1.25;;;0.70;;
77888;SDS011;67082;41.704;44.768;2024-01-11T04:53:44;1.30;;;0.50;;
77888;SDS011;67082;41.704;44.768;2024-01-11T04:56:13;1.58;;;0.70;;
77888;SDS011;67082;41.704;44.768;2024-01-11T04:58:42;1.23;;;0.65;;
77888;SDS011;67082;41.704;44.768;2024-01-11T05:01:14;2.55;;;0.60;;
77888;SDS011;67082;41.704;44.768;2024-01-11T05:03:43;1.02;;;0.60;;
77888;SDS011;67082;41.704;44.768;2024-01-11T05:06:15;4.43;;;1.20;;
77888;SDS011;67082;41.704;44.768;2024-01-11T05:08:44;3.63;;;1.40;;
77888;SDS011;67082;41.704;44.768;2024-01-11T05:11:19;4.72;;;1.27;;
77888;SDS011;67082;41.704;44.768;2024-01-11T05:13:48;3.37;;;1.50;;
77888;SDS011;67082;41.704;44.768;2024-01-11T05:16:20;3.05;;;1.70;;
77888;SDS011;67082;41.704;44.768;2024-01-11T05:18:49;3.33;;;1.40;;
77888;SDS011;67082;41.704;44.768;2024-01-11T05:21:17;2.97;;;1.20;;
77888;SDS011;67082;41.704;44.768;2024-01-11T05:23:46;4.88;;;1.50;;
77888;SDS011;67082;41.704;44.768;2024-01-11T05:26:15;2.92;;;1.33;;
77888;SDS011;67082;41.704;44.768;2024-01-11T05:28:43;4.45;;;1.40;;
77888;SDS011;67082;41.704;44.768;2024-01-11T05:31:12;4.72;;;1.50;;
77888;SDS011;67082;41.704;44.768;2024-01-11T05:33:45;7.47;;;3.10;;
77888;SDS011;67082;41.704;44.768;2024-01-11T05:36:15;7.25;;;3.10;;
77888;SDS011;67082;41.704;44.768;2024-01-11T05:38:44;6.03;;;2.35;;
77888;SDS011;67082;41.704;44.768;2024-01-11T05:41:13;4.75;;;1.90;;
77888;SDS011;67082;41.704;44.768;2024-01-11T05:43:41;5.45;;;2.00;;
77888;SDS011;67082;41.704;44.768;2024-01-11T05:46:10;3.78;;;1.52;;
77888;SDS011;67082;41.704;44.768;2024-01-11T05:48:39;3.05;;;1.65;;
77888;SDS011;67082;41.704;44.768;2024-01-11T05:51:07;4.65;;;1.42;;
77888;SDS011;67082;41.704;44.768;2024-01-11T05:53:36;3.33;;;1.75;;
77888;SDS011;67082;41.704;44.768;2024-01-11T05:56:07;4.38;;;1.70;;
77888;SDS011;67082;41.704;44.768;2024-01-11T05:58:36;3.40;;;1.75;;
77888;SDS011;67082;41.704;44.768;2024-01-11T06:01:05;4.25;;;1.42;;
77888;SDS011;67082;41.704;44.768;2024-01-11T06:03:33;2.45;;;1.30;;
77888;SDS011;67082;41.704;44.768;2024-01-11T06:06:02;4.72;;;1.50;;
77888;SDS011;67082;41.704;44.768;2024-01-11T06:08:31;3.78;;;1.88;;
77888;SDS011;67082;41.704;44.768;2024-01-11T06:10:59;3.83;;;1.73;;
77888;SDS011;67082;41.704;44.768;2024-01-11T06:13:27;3.80;;;1.67;;
77888;SDS011;67082;41.704;44.768;2024-01-11T06:15:55;5.90;;;1.60;;
77888;SDS011;67082;41.704;44.768;2024-01-11T06:18:24;3.38;;;1.60;;
77888;SDS011;67082;41.704;44.768;2024-01-11T06:20:52;2.13;;;1.20;;
77888;SDS011;67082;41.704;44.768;2024-01-11T06:23:20;4.47;;;1.50;;
77888;SDS011;67082;41.704;44.768;2024-01-11T06:25:48;5.47;;;1.40;;
77888;SDS011;67082;41.704;44.768;2024-01-11T06:28:16;4.55;;;1.50;;
77888;SDS011;67082;41.704;44.768;2024-01-11T06:30:44;4.85;;;1.50;;
77888;SDS011;67082;41.704;44.768;2024-01-11T06:33:12;3.55;;;1.40;;
77888;SDS011;67082;41.704;44.768;2024-01-11T06:35:40;4.95;;;1.50;;
77888;SDS011;67082;41.704;44.768;2024-01-11T06:38:09;6.00;;;1.58;;
77888;SDS011;67082;41.704;44.768;2024-01-11T06:40:37;6.10;;;1.65;;
77888;SDS011;67082;41.704;44.768;2024-01-11T06:43:05;3.25;;;1.60;;
77888;SDS011;67082;41.704;44.768;2024-01-11T06:45:33;3.88;;;1.00;;
77888;SDS011;67082;41.704;44.768;2024-01-11T06:48:01;3.08;;;0.98;;
77888;SDS011;67082;41.704;44.768;2024-01-11T06:50:29;3.15;;;1.02;;
77888;SDS011;67082;41.704;44.768;2024-01-11T06:52:57;3.92;;;1.23;;
77888;SDS011;67082;41.704;44.768;2024-01-11T06:55:25;2.40;;;1.00;;
77888;SDS011;67082;41.704;44.768;2024-01-11T06:57:53;2.80;;;1.15;;
77888;SDS011;67082;41.704;44.768;2024-01-11T07:00:21;9.18;;;5.03;;
77888;SDS011;67082;41.704;44.768;2024-01-11T07:02:49;5.70;;;3.70;;
77888;SDS011;67082;41.704;44.768;2024-01-11T07:05:17;2.55;;;1.15;;
77888;SDS011;67082;41.704;44.768;2024-01-11T07:07:45;3.78;;;1.20;;
77888;SDS011;67082;41.704;44.768;2024-01-11T07:10:13;4.32;;;1.20;;
77888;SDS011;67082;41.704;44.768;2024-01-11T07:12:42;2.85;;;1.10;;
77888;SDS011;67082;41.704;44.768;2024-01-11T07:15:10;2.03;;;1.10;;
77888;SDS011;67082;41.704;44.768;2024-01-11T07:17:38;2.25;;;1.00;;
77888;SDS011;67082;41.704;44.768;2024-01-11T07:20:07;1.80;;;0.93;;
77888;SDS011;67082;41.704;44.768;2024-01-11T07:22:35;2.40;;;1.05;;
77888;SDS011;67082;41.704;44.768;2024-01-11T07:25:07;1.65;;;0.90;;
77888;SDS011;67082;41.704;44.768;2024-01-11T07:27:35;3.55;;;1.00;;
77888;SDS011;67082;41.704;44.768;2024-01-11T07:30:03;2.60;;;1.00;;
77888;SDS011;67082;41.704;44.768;2024-01-11T07:32:34;3.60;;;1.27;;
77888;SDS011;67082;41.704;44.768;2024-01-11T07:35:02;2.10;;;1.10;;
77888;SDS011;67082;41.704;44.768;2024-01-11T07:37:34;3.25;;;1.20;;
77888;SDS011;67082;41.704;44.768;2024-01-11T07:40:02;5.60;;;1.35;;
77888;SDS011;67082;41.704;44.768;2024-01-11T07:42:31;4.18;;;2.05;;
77888;SDS011;67082;41.704;44.768;2024-01-11T07:44:59;3.58;;;1.75;;
77888;SDS011;67082;41.704;44.768;2024-01-11T07:47:30;3.58;;;1.50;;
77888;SDS011;67082;41.704;44.768;2024-01-11T07:49:58;5.55;;;1.90;;
77888;SDS011;67082;41.704;44.768;2024-01-11T07:52:26;6.82;;;1.77;;
77888;SDS011;67082;41.704;44.768;2024-01-11T07:54:54;2.53;;;1.40;;
77888;SDS011;67082;41.704;44.768;2024-01-11T07:57:22;5.13;;;1.55;;
77888;SDS011;67082;41.704;44.768;2024-01-11T07:59:51;4.00;;;1.60;;
77888;SDS011;67082;41.704;44.768;2024-01-11T08:02:19;8.57;;;1.77;;
77888;SDS011;67082;41.704;44.768;2024-01-11T08:04:47;3.92;;;1.98;;
77888;SDS011;67082;41.704;44.768;2024-01-11T08:07:16;5.10;;;2.13;;
77888;SDS011;67082;41.704;44.768;2024-01-11T08:09:44;4.18;;;1.95;;
77888;SDS011;67082;41.704;44.768;2024-01-11T08:12:15;6.15;;;2.40;;
77888;SDS011;67082;41.704;44.768;2024-01-11T08:14:43;6.72;;;2.47;;
77888;SDS011;67082;41.704;44.768;2024-01-11T08:17:14;8.80;;;3.03;;
77888;SDS011;67082;41.704;44.768;2024-01-11T08:19:42;7.72;;;2.67;;
77888;SDS011;67082;41.704;44.768;2024-01-11T08:22:11;11.75;;;4.70;;
77888;SDS011;67082;41.704;44.768;2024-01-11T08:24:39;11.60;;;4.13;;
77888;SDS011;67082;41.704;44.768;2024-01-11T08:27:07;8.50;;;4.38;;
77888;SDS011;67082;41.704;44.768;2024-01-11T08:29:35;19.27;;;7.53;;
77888;SDS011;67082;41.704;44.768;2024-01-11T08:32:03;16.80;;;7.15;;
77888;SDS011;67082;41.704;44.768;2024-01-11T08:34:50;15.55;;;5.28;;
77888;SDS011;67082;41.704;44.768;2024-01-11T08:37:18;12.15;;;5.32;;
77888;SDS011;67082;41.704;44.768;2024-01-11T08:39:46;8.52;;;4.80;;
77888;SDS011;67082;41.704;44.768;2024-01-11T08:42:14;24.48;;;9.55;;
77888;SDS011;67082;41.704;44.768;2024-01-11T08:44:45;22.40;;;8.55;;
77888;SDS011;67082;41.704;44.768;2024-01-11T08:47:13;19.92;;;8.02;;
77888;SDS011;67082;41.704;44.768;2024-01-11T08:49:41;20.60;;;9.00;;
77888;SDS011;67082;41.704;44.768;2024-01-11T08:52:09;13.00;;;6.90;;
77888;SDS011;67082;41.704;44.768;2024-01-11T08:54:37;15.35;;;5.28;;
77888;SDS011;67082;41.704;44.768;2024-01-11T08:57:06;17.25;;;6.15;;
77888;SDS011;67082;41.704;44.768;2024-01-11T08:59:34;25.60;;;10.25;;
77888;SDS011;67082;41.704;44.768;2024-01-11T09:02:02;23.67;;;8.63;;
77888;SDS011;67082;41.704;44.768;2024-01-11T09:04:41;34.22;;;13.90;;
77888;SDS011;67082;41.704;44.768;2024-01-11T09:07:10;29.08;;;11.95;;
77888;SDS011;67082;41.704;44.768;2024-01-11T11:24:41;27.13;;;14.07;;
77888;SDS011;67082;41.704;44.768;2024-01-11T11:27:12;21.88;;;11.57;;
77888;SDS011;67082;41.704;44.768;2024-01-11T11:29:46;21.85;;;11.23;;
77888;SDS011;67082;41.704;44.768;2024-01-11T11:32:15;18.58;;;9.75;;
77888;SDS011;67082;41.704;44.768;2024-01-11T11:34:45;19.20;;;9.18;;
77888;SDS011;67082;41.704;44.768;2024-01-11T11:37:22;14.77;;;8.65;;
77888;SDS011;67082;41.704;44.768;2024-01-11T11:39:51;14.48;;;8.07;;
77888;SDS011;67082;41.704;44.768;2024-01-11T11:42:23;15.05;;;8.82;;
77888;SDS011;67082;41.704;44.768;2024-01-11T11:44:52;14.93;;;8.70;;
77888;SDS011;67082;41.704;44.768;2024-01-11T11:47:21;12.57;;;7.97;;
77888;SDS011;67082;41.704;44.768;2024-01-11T11:50:10;15.52;;;9.25;;
77888;SDS011;67082;41.704;44.768;2024-01-11T11:52:40;15.82;;;7.88;;
77888;SDS011;67082;41.704;44.768;2024-01-11T11:55:09;15.95;;;7.10;;
77888;SDS011;67082;41.704;44.768;2024-01-11T11:57:39;12.77;;;7.45;;
77888;SDS011;67082;41.704;44.768;2024-01-11T12:00:11;13.57;;;7.78;;
77888;SDS011;67082;41.704;44.768;2024-01-11T12:02:41;14.82;;;8.10;;
77888;SDS011;67082;41.704;44.768;2024-01-11T12:05:09;15.57;;;7.90;;
77888;SDS011;67082;41.704;44.768;2024-01-11T12:07:38;17.38;;;8.50;;
77888;SDS011;67082;41.704;44.768;2024-01-11T12:10:06;14.95;;;8.13;;
77888;SDS011;67082;41.704;44.768;2024-01-11T12:12:35;15.27;;;8.60;;
77888;SDS011;67082;41.704;44.768;2024-01-11T12:15:04;14.50;;;8.25;;
77888;SDS011;67082;41.704;44.768;2024-01-11T12:17:33;17.45;;;8.63;;
77888;SDS011;67082;41.704;44.768;2024-01-11T12:20:02;15.75;;;7.78;;
77888;SDS011;67082;41.704;44.768;2024-01-11T12:22:31;14.55;;;8.05;;
77888;SDS011;67082;41.704;44.768;2024-01-11T12:24:59;15.23;;;8.10;;
77888;SDS011;67082;41.704;44.768;2024-01-11T12:27:29;17.02;;;8.77;;
77888;SDS011;67082;41.704;44.768;2024-01-11T12:29:58;16.30;;;8.07;;
77888;SDS011;67082;41.704;44.768;2024-01-11T12:32:27;14.43;;;7.97;;
77888;SDS011;67082;41.704;44.768;2024-01-11T12:34:57;15.93;;;8.30;;
77888;SDS011;67082;41.704;44.768;2024-01-11T12:37:26;13.25;;;7.45;;
77888;SDS011;67082;41.704;44.768;2024-01-11T12:39:57;14.57;;;7.65;;
77888;SDS011;67082;41.704;44.768;2024-01-11T12:42:27;17.45;;;7.95;;
77888;SDS011;67082;41.704;44.768;2024-01-11T12:44:55;15.45;;;7.82;;
77888;SDS011;67082;41.704;44.768;2024-01-11T12:47:26;19.05;;;8.40;;
77888;SDS011;67082;41.704;44.768;2024-01-11T12:49:55;19.30;;;9.05;;
77888;SDS011;67082;41.704;44.768;2024-01-11T12:52:24;15.90;;;8.48;;
77888;SDS011;67082;41.704;44.768;2024-01-11T12:54:55;21.15;;;8.75;;
77888;SDS011;67082;41.704;44.768;2024-01-11T12:57:24;15.45;;;7.93;;
77888;SDS011;67082;41.704;44.768;2024-01-11T12:59:52;17.42;;;8.80;;
77888;SDS011;67082;41.704;44.768;2024-01-11T13:02:23;18.33;;;9.10;;
77888;SDS011;67082;41.704;44.768;2024-01-11T13:04:52;18.55;;;8.93;;
77888;SDS011;67082;41.704;44.768;2024-01-11T13:07:20;17.45;;;8.70;;
77888;SDS011;67082;41.704;44.768;2024-01-11T13:09:50;16.70;;;8.35;;
77888;SDS011;67082;41.704;44.768;2024-01-11T13:12:18;16.10;;;8.60;;
77888;SDS011;67082;41.704;44.768;2024-01-11T13:14:48;15.93;;;8.40;;
77888;SDS011;67082;41.704;44.768;2024-01-11T13:17:18;18.45;;;8.48;;
77888;SDS011;67082;41.704;44.768;2024-01-11T13:19:47;17.45;;;8.45;;
77888;SDS011;67082;41.704;44.768;2024-01-11T13:22:16;15.07;;;8.48;;
77888;SDS011;67082;41.704;44.768;2024-01-11T13:24:44;15.68;;;8.07;;
77888;SDS011;67082;41.704;44.768;2024-01-11T13:27:12;15.45;;;8.18;;
77888;SDS011;67082;41.704;44.768;2024-01-11T13:29:40;15.95;;;8.18;;
77888;SDS011;67082;41.704;44.768;2024-01-11T13:32:08;16.83;;;8.00;;
77888;SDS011;67082;41.704;44.768;2024-01-11T13:34:38;15.07;;;8.10;;
77888;SDS011;67082;41.704;44.768;2024-01-11T13:37:06;14.95;;;8.35;;
77888;SDS011;67082;41.704;44.768;2024-01-11T13:39:34;14.05;;;7.93;;
77888;SDS011;67082;41.704;44.768;2024-01-11T13:42:03;15.98;;;8.55;;
77888;SDS011;67082;41.704;44.768;2024-01-11T13:44:38;15.50;;;8.18;;
77888;SDS011;67082;41.704;44.768;2024-01-11T13:47:06;16.08;;;7.90;;
77888;SDS011;67082;41.704;44.768;2024-01-11T13:49:34;13.57;;;7.47;;
77888;SDS011;67082;41.704;44.768;2024-01-11T13:52:03;18.42;;;8.85;;
77888;SDS011;67082;41.704;44.768;2024-01-11T13:54:32;15.73;;;8.13;;
77888;SDS011;67082;41.704;44.768;2024-01-11T13:57:00;16.00;;;8.23;;
77888;SDS011;67082;41.704;44.768;2024-01-11T13:59:30;15.75;;;8.75;;
77888;SDS011;67082;41.704;44.768;2024-01-11T14:01:58;17.08;;;8.52;;
77888;SDS011;67082;41.704;44.768;2024-01-11T14:04:26;17.80;;;8.57;;
77888;SDS011;67082;41.704;44.768;2024-01-11T14:06:54;15.10;;;8.07;;
77888;SDS011;67082;41.704;44.768;2024-01-11T14:09:23;19.65;;;8.60;;
77888;SDS011;67082;41.704;44.768;2024-01-11T14:11:51;18.17;;;9.15;;
77888;SDS011;67082;41.704;44.768;2024-01-11T14:14:19;18.83;;;9.35;;
77888;SDS011;67082;41.704;44.768;2024-01-11T14:16:48;16.63;;;9.05;;
77888;SDS011;67082;41.704;44.768;2024-01-11T14:19:18;15.43;;;8.52;;
77888;SDS011;67082;41.704;44.768;2024-01-11T14:21:47;19.35;;;9.90;;
77888;SDS011;67082;41.704;44.768;2024-01-11T14:24:15;18.02;;;8.52;;
77888;SDS011;67082;41.704;44.768;2024-01-11T14:26:56;17.75;;;9.27;;
77888;SDS011;67082;41.704;44.768;2024-01-11T14:29:25;18.88;;;9.60;;
77888;SDS011;67082;41.704;44.768;2024-01-11T14:31:54;19.75;;;9.73;;
77888;SDS011;67082;41.704;44.768;2024-01-11T14:34:22;20.63;;;9.88;;
77888;SDS011;67082;41.704;44.768;2024-01-11T14:36:54;17.58;;;9.27;;
77888;SDS011;67082;41.704;44.768;2024-01-11T14:39:25;17.80;;;9.15;;
77888;SDS011;67082;41.704;44.768;2024-01-11T14:41:53;19.27;;;9.88;;
77888;SDS011;67082;41.704;44.768;2024-01-11T14:44:22;19.02;;;9.90;;
77888;SDS011;67082;41.704;44.768;2024-01-11T14:46:50;17.75;;;9.10;;
77888;SDS011;67082;41.704;44.768;2024-01-11T14:49:18;19.13;;;10.23;;
77888;SDS011;67082;41.704;44.768;2024-01-11T14:51:46;18.92;;;9.52;;
77888;SDS011;67082;41.704;44.768;2024-01-11T14:54:15;16.55;;;8.93;;
77888;SDS011;67082;41.704;44.768;2024-01-11T14:56:44;20.13;;;10.00;;
77888;SDS011;67082;41.704;44.768;2024-01-11T14:59:13;19.98;;;10.68;;
77888;SDS011;67082;41.704;44.768;2024-01-11T15:01:42;19.88;;;10.07;;
77888;SDS011;67082;41.704;44.768;2024-01-11T15:04:13;18.80;;;9.55;;
77888;SDS011;67082;41.704;44.768;2024-01-11T15:06:41;19.63;;;10.02;;
77888;SDS011;67082;41.704;44.768;2024-01-11T15:09:10;16.88;;;9.07;;
77888;SDS011;67082;41.704;44.768;2024-01-11T15:11:40;20.75;;;10.60;;
77888;SDS011;67082;41.704;44.768;2024-01-11T15:14:08;20.80;;;9.77;;
77888;SDS011;67082;41.704;44.768;2024-01-11T15:16:40;22.90;;;11.18;;
77888;SDS011;67082;41.704;44.768;2024-01-11T15:19:09;20.77;;;10.57;;
77888;SDS011;67082;41.704;44.768;2024-01-11T15:21:38;21.52;;;10.35;;
77888;SDS011;67082;41.704;44.768;2024-01-11T15:24:15;19.98;;;9.70;;
77888;SDS011;67082;41.704;44.768;2024-01-11T15:26:47;21.13;;;10.70;;
77888;SDS011;67082;41.704;44.768;2024-01-11T15:29:16;20.95;;;10.35;;
77888;SDS011;67082;41.704;44.768;2024-01-11T15:31:45;19.00;;;9.73;;
77888;SDS011;67082;41.704;44.768;2024-01-11T15:34:14;21.00;;;10.15;;
77888;SDS011;67082;41.704;44.768;2024-01-11T15:36:43;20.08;;;9.55;;
77888;SDS011;67082;41.704;44.768;2024-01-11T15:39:12;20.05;;;10.55;;
77888;SDS011;67082;41.704;44.768;2024-01-11T15:41:54;19.88;;;10.55;;
77888;SDS011;67082;41.704;44.768;2024-01-11T15:44:25;20.27;;;10.30;;
77888;SDS011;67082;41.704;44.768;2024-01-11T15:46:56;19.15;;;10.15;;
77888;SDS011;67082;41.704;44.768;2024-01-11T15:49:24;22.35;;;10.68;;
77888;SDS011;67082;41.704;44.768;2024-01-11T15:51:53;19.75;;;10.02;;
77888;SDS011;67082;41.704;44.768;2024-01-11T15:54:21;17.92;;;9.57;;
77888;SDS011;67082;41.704;44.768;2024-01-11T15:56:50;20.52;;;9.88;;
77888;SDS011;67082;41.704;44.768;2024-01-11T15:59:18;20.88;;;10.25;;
77888;SDS011;67082;41.704;44.768;2024-01-11T16:01:48;22.65;;;10.00;;
77888;SDS011;67082;41.704;44.768;2024-01-11T16:04:29;18.98;;;9.73;;
77888;SDS011;67082;41.704;44.768;2024-01-11T16:06:58;19.90;;;10.25;;
77888;SDS011;67082;41.704;44.768;2024-01-11T16:09:26;19.23;;;9.68;;
77888;SDS011;67082;41.704;44.768;2024-01-11T16:11:56;17.55;;;8.88;;
77888;SDS011;67082;41.704;44.768;2024-01-11T16:14:31;18.25;;;9.05;;
77888;SDS011;67082;41.704;44.768;2024-01-11T16:17:00;22.65;;;10.30;;
77888;SDS011;67082;41.704;44.768;2024-01-11T16:19:28;19.15;;;9.77;;
77888;SDS011;67082;41.704;44.768;2024-01-11T16:22:01;18.95;;;9.48;;
77888;SDS011;67082;41.704;44.768;2024-01-11T16:24:29;17.65;;;8.70;;
77888;SDS011;67082;41.704;44.768;2024-01-11T16:26:58;19.65;;;9.48;;
77888;SDS011;67082;41.704;44.768;2024-01-11T16:29:26;19.52;;;9.63;;
77888;SDS011;67082;41.704;44.768;2024-01-11T16:31:55;17.48;;;8.70;;
77888;SDS011;67082;41.704;44.768;2024-01-11T16:34:23;18.95;;;9.45;;
77888;SDS011;67082;41.704;44.768;2024-01-11T16:36:51;16.95;;;8.52;;
77888;SDS011;67082;41.704;44.768;2024-01-11T16:39:20;20.08;;;9.27;;
77888;SDS011;67082;41.704;44.768;2024-01-11T16:41:49;18.98;;;10.00;;
77888;SDS011;67082;41.704;44.768;2024-01-11T16:44:17;18.98;;;9.43;;
77888;SDS011;67082;41.704;44.768;2024-01-11T16:46:46;19.23;;;9.02;;
77888;SDS011;67082;41.704;44.768;2024-01-11T16:49:14;17.35;;;8.60;;
77888;SDS011;67082;41.704;44.768;2024-01-11T16:51:46;20.15;;;9.45;;
77888;SDS011;67082;41.704;44.768;2024-01-11T16:54:17;17.10;;;8.75;;